createdAt,value
2022-09-07T00:01:47.643Z,99.90
2022-09-07T00:04:17.989Z,99.90
2022-09-07T00:06:48.512Z,99.90
2022-09-07T00:09:18.700Z,99.90
2022-09-07T00:11:49.033Z,99.90
2022-09-07T00:14:19.454Z,99.90
2022-09-07T00:16:49.730Z,99.90
2022-09-07T00:19:20.087Z,99.90
2022-09-07T00:21:50.309Z,99.90
2022-09-07T00:24:20.564Z,99.90
2022-09-07T00:26:50.753Z,99.90
2022-09-07T00:29:21.010Z,99.90
2022-09-07T00:31:51.572Z,99.90
2022-09-07T00:34:21.912Z,99.90
2022-09-07T00:36:52.269Z,99.90
2022-09-07T00:39:22.565Z,99.90
2022-09-07T00:41:53.372Z,99.90
2022-09-07T00:44:52.520Z,99.90
2022-09-07T00:47:28.672Z,99.90
2022-09-07T00:50:05.208Z,99.90
2022-09-07T00:52:38.284Z,99.90
2022-09-07T00:55:14.582Z,99.90
2022-09-07T00:57:51.759Z,99.90
2022-09-07T01:00:22.873Z,99.90
2022-09-07T01:02:56.978Z,99.90
2022-09-07T01:05:37.557Z,99.90
2022-09-07T01:08:08.696Z,99.90
2022-09-07T01:10:39.669Z,99.90
2022-09-07T01:13:10.676Z,99.90
2022-09-07T01:16:19.390Z,99.90
2022-09-07T01:19:26.406Z,99.90
2022-09-07T01:22:30.375Z,99.90
2022-09-07T01:25:15.876Z,99.90
2022-09-07T01:28:16.672Z,99.90
2022-09-07T01:31:07.785Z,99.90
2022-09-07T01:34:06.376Z,99.90
2022-09-07T01:36:51.223Z,99.90
2022-09-07T01:39:25.972Z,99.90
2022-09-07T01:42:04.145Z,99.90
2022-09-07T01:44:58.446Z,99.90
2022-09-07T01:47:37.270Z,99.90
2022-09-07T01:50:23.039Z,99.90
2022-09-07T01:53:01.405Z,99.90
2022-09-07T01:55:46.748Z,99.90
2022-09-07T01:58:35.486Z,99.90
2022-09-07T02:01:17.372Z,99.90
2022-09-07T02:03:55.427Z,99.90
2022-09-07T02:06:44.623Z,99.90
2022-09-07T02:09:25.437Z,99.90
2022-09-07T02:11:56.679Z,99.90
2022-09-07T02:14:39.944Z,99.90
2022-09-07T02:17:30.822Z,99.90
2022-09-07T02:20:10.545Z,99.90
2022-09-07T02:22:45.551Z,99.90
2022-09-07T02:25:23.107Z,99.90
2022-09-07T02:28:01.617Z,99.90
2022-09-07T02:30:31.733Z,99.90
2022-09-07T02:33:01.845Z,99.90
2022-09-07T02:35:31.858Z,99.90
2022-09-07T02:38:06.087Z,99.90
2022-09-07T02:40:36.740Z,99.90
2022-09-07T02:43:10.543Z,99.90
2022-09-07T02:46:04.855Z,99.90
2022-09-07T02:49:03.345Z,99.90
2022-09-07T02:51:46.404Z,99.90
2022-09-07T02:54:47.146Z,99.60
2022-09-07T02:57:46.056Z,99.30
2022-09-07T03:00:22.896Z,99.90
2022-09-07T03:03:16.298Z,99.70
2022-09-07T03:05:54.498Z,99.90
2022-09-07T03:12:50.398Z,99.90
2022-09-07T03:15:24.866Z,99.90
2022-09-07T03:17:55.757Z,99.90
2022-09-07T03:20:26.520Z,99.90
2022-09-07T03:22:56.933Z,99.90
2022-09-07T03:25:27.321Z,99.90
2022-09-07T03:27:57.585Z,99.90
2022-09-07T03:30:29.579Z,99.60
2022-09-07T03:33:00.458Z,99.60
2022-09-07T03:35:31.160Z,99.30
2022-09-07T03:38:02.078Z,99.70
2022-09-07T03:40:32.871Z,99.90
2022-09-07T03:43:03.909Z,99.90
2022-09-07T03:45:34.706Z,99.90
2022-09-07T03:48:05.766Z,99.70
2022-09-07T03:50:36.588Z,99.30
2022-09-07T03:53:07.693Z,99.10
2022-09-07T03:55:38.576Z,99.10
2022-09-07T03:58:09.583Z,99.00
2022-09-07T04:00:44.742Z,99.20
2022-09-07T04:03:16.046Z,99.10
2022-09-07T04:05:47.159Z,98.50
2022-09-07T04:08:19.446Z,97.80
2022-09-07T04:10:50.489Z,97.50
2022-09-07T04:13:21.449Z,97.20
2022-09-07T04:15:53.953Z,97.40
2022-09-07T04:18:26.738Z,97.20
2022-09-07T04:21:02.254Z,96.80
2022-09-07T04:23:33.407Z,97.20
2022-09-07T04:26:04.598Z,97.40
2022-09-07T04:28:35.751Z,97.10
2022-09-07T04:31:06.919Z,96.80
2022-09-07T04:33:38.450Z,96.10
2022-09-07T04:36:09.680Z,95.30
2022-09-07T04:38:42.516Z,94.70
2022-09-07T04:41:20.851Z,95.10
2022-09-07T04:43:55.785Z,95.30
2022-09-07T04:46:37.646Z,95.70
2022-09-07T04:49:12.164Z,95.50
2022-09-07T04:51:46.643Z,95.20
2022-09-07T04:54:17.780Z,94.80
2022-09-07T04:56:49.159Z,94.20
2022-09-07T04:59:20.134Z,94.30
2022-09-07T05:01:51.227Z,93.70
2022-09-07T05:04:22.255Z,93.90
2022-09-07T05:06:53.157Z,94.50
2022-09-07T05:09:24.466Z,93.70
2022-09-07T05:11:55.522Z,93.80
2022-09-07T05:14:26.738Z,94.10
2022-09-07T05:16:59.943Z,94.30
2022-09-07T05:19:32.696Z,93.70
2022-09-07T05:22:14.491Z,92.40
2022-09-07T05:24:49.982Z,92.40
2022-09-07T05:27:28.087Z,91.90
2022-09-07T05:32:44.422Z,92.60
2022-09-07T05:35:21.751Z,92.50
2022-09-07T05:37:54.346Z,92.00
2022-09-07T05:40:26.538Z,92.50
2022-09-07T05:42:57.885Z,92.80
2022-09-07T05:45:29.580Z,92.80
2022-09-07T05:48:01.357Z,92.60
2022-09-07T05:50:33.460Z,92.60
2022-09-07T05:53:05.944Z,93.60
2022-09-07T05:55:39.772Z,93.90
2022-09-07T05:58:10.757Z,94.10
2022-09-07T06:00:42.499Z,94.40
2022-09-07T06:03:13.868Z,95.00
2022-09-07T06:05:46.705Z,95.30
2022-09-07T06:08:17.873Z,95.10
2022-09-07T06:10:50.863Z,95.20
2022-09-07T06:13:22.113Z,96.20
2022-09-07T06:15:53.333Z,97.30
2022-09-07T06:18:24.959Z,97.80
2022-09-07T06:20:56.144Z,97.80
2022-09-07T06:23:27.076Z,98.80
2022-09-07T06:25:58.135Z,99.10
2022-09-07T06:28:35.164Z,98.90
2022-09-07T06:31:15.449Z,98.90
2022-09-07T06:33:52.995Z,99.10
2022-09-07T06:36:30.608Z,99.40
2022-09-07T06:39:14.223Z,99.50
2022-09-07T06:42:01.621Z,99.10
2022-09-07T06:44:33.418Z,99.50
2022-09-07T06:47:09.217Z,99.70
2022-09-07T06:49:40.628Z,99.40
2022-09-07T06:52:11.863Z,99.90
2022-09-07T06:54:58.714Z,99.90
2022-09-07T06:57:31.859Z,98.00
2022-09-07T07:00:02.976Z,99.30
2022-09-07T07:02:34.875Z,98.90
2022-09-07T07:05:33.920Z,98.10
2022-09-07T07:08:35.186Z,96.60
2022-09-07T07:20:49.506Z,96.40
2022-09-07T07:23:20.424Z,96.40
2022-09-07T07:25:52.632Z,96.10
2022-09-07T07:31:22.496Z,96.00
2022-09-07T07:33:55.346Z,94.50
2022-09-07T07:36:29.091Z,95.00
2022-09-07T07:39:01.398Z,95.00
2022-09-07T07:44:25.878Z,94.40
2022-09-07T07:47:00.296Z,94.90
2022-09-07T07:49:31.420Z,94.40
2022-09-07T07:54:48.714Z,93.70
2022-09-07T07:57:20.429Z,93.90
2022-09-07T07:59:49.904Z,94.10
2022-09-07T08:02:19.655Z,94.20
2022-09-07T08:04:49.470Z,94.80
2022-09-07T08:07:19.197Z,94.60
2022-09-07T08:09:50.594Z,94.00
2022-09-07T08:12:23.850Z,93.70
2022-09-07T08:14:56.292Z,94.10
2022-09-07T08:17:26.974Z,93.70
2022-09-07T08:19:57.313Z,93.70
2022-09-07T08:22:30.724Z,93.80
2022-09-07T08:25:03.803Z,93.80
2022-09-07T08:27:41.544Z,94.50
2022-09-07T08:30:12.877Z,94.00
2022-09-07T08:32:45.515Z,93.80
2022-09-07T08:35:15.486Z,93.50
2022-09-07T08:37:45.341Z,93.60
2022-09-07T08:40:24.279Z,93.60
2022-09-07T08:43:21.586Z,93.50
2022-09-07T08:45:56.579Z,93.80
2022-09-07T08:48:33.819Z,94.20
2022-09-07T08:51:25.587Z,93.90
2022-09-07T08:53:55.309Z,92.60
2022-09-07T08:56:37.035Z,93.90
2022-09-07T08:59:20.861Z,93.70
2022-09-07T09:07:34.264Z,92.60
2022-09-07T09:10:37.087Z,91.60
2022-09-07T09:13:27.359Z,91.00
2022-09-07T09:16:15.405Z,92.50
2022-09-07T09:19:07.432Z,92.40
2022-09-07T09:21:38.136Z,92.30
2022-09-07T09:24:18.481Z,92.10
2022-09-07T09:26:53.962Z,92.10
2022-09-07T09:29:24.764Z,92.30
2022-09-07T09:31:54.820Z,92.80
2022-09-07T09:34:29.436Z,93.00
2022-09-07T09:37:01.137Z,93.40
2022-09-07T09:39:34.852Z,93.20
2022-09-07T09:42:26.461Z,93.60
2022-09-07T09:45:06.164Z,94.00
2022-09-07T09:47:38.546Z,93.90
2022-09-07T09:53:29.839Z,93.90
2022-09-07T09:56:00.727Z,93.40
2022-09-07T10:03:10.401Z,93.80
2022-09-07T10:04:39.214Z,93.60
2022-09-07T10:07:28.235Z,93.50
2022-09-07T10:09:58.902Z,92.60
2022-09-07T10:12:41.673Z,93.40
2022-09-07T10:15:28.771Z,94.00
2022-09-07T10:17:59.661Z,93.80
2022-09-07T10:20:37.957Z,94.70
2022-09-07T10:23:20.643Z,94.20
2022-09-07T10:25:50.936Z,94.70
2022-09-07T10:28:23.754Z,95.30
2022-09-07T10:31:23.814Z,95.10
2022-09-07T10:34:27.932Z,95.60
2022-09-07T10:37:35.769Z,96.20
2022-09-07T10:40:31.224Z,96.70
2022-09-07T10:43:27.357Z,97.20
2022-09-07T10:49:34.522Z,96.50
2022-09-07T10:52:34.977Z,95.90
2022-09-07T10:55:27.469Z,96.50
2022-09-07T11:01:58.238Z,96.10
2022-09-07T11:05:01.177Z,95.90
2022-09-07T11:08:11.569Z,96.20
2022-09-07T11:11:11.060Z,96.20
2022-09-07T11:14:11.438Z,95.70
2022-09-07T11:16:55.466Z,96.40
2022-09-07T11:19:37.655Z,96.30
2022-09-07T11:22:33.232Z,96.50
2022-09-07T11:25:29.645Z,96.60
2022-09-07T11:28:22.465Z,96.60
2022-09-07T11:31:05.797Z,95.90
2022-09-07T11:34:23.771Z,95.70
2022-09-07T11:36:45.262Z,95.80
2022-09-07T11:39:39.189Z,95.70
2022-09-07T11:42:48.545Z,95.80
2022-09-07T11:45:30.150Z,95.90
2022-09-07T11:48:36.543Z,95.80
2022-09-07T11:51:38.785Z,95.50
2022-09-07T11:54:32.981Z,95.60
2022-09-07T11:57:36.273Z,95.80
2022-09-07T12:00:13.648Z,96.00
2022-09-07T12:03:19.784Z,96.10
2022-09-07T12:06:27.197Z,96.10
2022-09-07T12:09:23.265Z,96.20
2022-09-07T12:12:27.788Z,96.60
2022-09-07T12:15:28.164Z,96.50
2022-09-07T12:18:28.784Z,97.10
2022-09-07T12:20:58.396Z,97.00
2022-09-07T12:23:33.910Z,96.90
2022-09-07T12:26:40.072Z,97.20
2022-09-07T12:29:23.844Z,97.80
2022-09-07T12:31:59.734Z,97.40
2022-09-07T12:34:55.502Z,97.30
2022-09-07T12:37:42.640Z,97.10
2022-09-07T12:40:41.997Z,97.40
2022-09-07T12:43:48.277Z,97.50
2022-09-07T12:46:47.541Z,97.00
2022-09-07T12:49:47.241Z,97.50
2022-09-07T12:52:43.151Z,97.80
2022-09-07T12:59:22.676Z,98.40
2022-09-07T13:02:23.543Z,98.60
2022-09-07T13:05:19.854Z,98.60
2022-09-07T13:08:28.081Z,98.30
2022-09-07T13:10:58.176Z,98.50
2022-09-07T13:17:16.107Z,98.40
2022-09-07T13:23:22.212Z,98.50
2022-09-07T13:25:56.560Z,98.80
2022-09-07T13:29:10.681Z,98.50
2022-09-07T13:32:11.997Z,98.40
2022-09-07T13:35:17.824Z,98.40
2022-09-07T13:37:54.869Z,98.70
2022-09-07T13:40:30.496Z,98.90
2022-09-07T13:43:01.935Z,98.80
2022-09-07T13:46:03.285Z,99.20
2022-09-07T13:48:53.752Z,99.20
2022-09-07T13:51:46.749Z,99.20
2022-09-07T13:54:50.559Z,99.30
2022-09-07T13:57:46.220Z,99.40
2022-09-07T14:00:24.338Z,99.10
2022-09-07T14:02:57.050Z,99.10
2022-09-07T14:05:27.375Z,99.00
2022-09-07T14:07:58.077Z,99.30
2022-09-07T14:10:29.492Z,99.20
2022-09-07T14:13:14.029Z,99.00
2022-09-07T14:15:47.975Z,99.10
2022-09-07T14:18:30.962Z,98.80
2022-09-07T14:21:00.474Z,98.80
2022-09-07T14:23:36.112Z,98.90
2022-09-07T14:26:22.128Z,98.80
2022-09-07T14:28:55.164Z,98.60
2022-09-07T14:31:28.719Z,98.30
2022-09-07T14:34:01.126Z,98.80
2022-09-07T14:36:45.468Z,99.10
2022-09-07T14:39:20.694Z,99.00
2022-09-07T14:41:50.681Z,99.30
2022-09-07T14:44:41.579Z,99.40
2022-09-07T14:47:27.405Z,99.30
2022-09-07T14:50:06.798Z,99.50
2022-09-07T14:52:44.161Z,99.20
2022-09-07T14:55:37.741Z,99.50
2022-09-07T14:58:26.522Z,99.30
2022-09-07T15:04:02.711Z,99.60
2022-09-07T15:09:39.669Z,99.40
2022-09-07T15:12:33.071Z,99.50
2022-09-07T15:15:26.751Z,99.60
2022-09-07T15:18:03.134Z,99.50
2022-09-07T15:20:45.133Z,99.70
2022-09-07T15:23:16.860Z,99.80
2022-09-07T15:25:53.680Z,99.80
2022-09-07T15:31:56.762Z,99.60
2022-09-07T15:34:24.595Z,99.50
2022-09-07T15:36:58.509Z,99.60
2022-09-07T15:39:31.694Z,99.40
2022-09-07T15:42:59.466Z,99.50
2022-09-07T15:44:52.949Z,99.50
2022-09-07T15:50:14.166Z,99.00
2022-09-07T15:52:46.483Z,99.00
2022-09-07T15:55:17.624Z,99.20
2022-09-07T15:57:49.265Z,99.50
2022-09-07T16:00:23.121Z,99.30
2022-09-07T16:03:09.408Z,99.30
2022-09-07T16:05:46.961Z,99.10
2022-09-07T16:08:25.447Z,99.00
2022-09-07T16:11:04.745Z,98.90
2022-09-07T16:13:36.179Z,99.00
2022-09-07T16:16:08.786Z,99.00
2022-09-07T16:18:39.803Z,99.20
2022-09-07T16:21:14.276Z,99.20
2022-09-07T16:23:47.614Z,99.00
2022-09-07T16:26:20.558Z,98.70
2022-09-07T16:28:53.091Z,98.80
2022-09-07T16:35:12.904Z,99.30
2022-09-07T16:40:33.653Z,99.70
2022-09-07T16:43:04.642Z,99.70
2022-09-07T16:48:24.695Z,99.20
2022-09-07T16:51:01.598Z,98.90
2022-09-07T16:53:33.190Z,98.90
2022-09-07T16:56:08.221Z,99.70
2022-09-07T16:58:41.910Z,99.90
2022-09-07T17:01:14.837Z,99.90
2022-09-07T17:03:46.224Z,99.90
2022-09-07T17:06:18.000Z,99.90
2022-09-07T17:08:49.246Z,99.90
2022-09-07T17:11:22.688Z,99.90
2022-09-07T17:13:54.007Z,99.90
2022-09-07T17:16:28.520Z,99.90
2022-09-07T17:21:55.455Z,99.90
2022-09-07T17:24:27.975Z,99.90
2022-09-07T17:26:59.499Z,99.90
2022-09-07T17:29:33.890Z,99.90
2022-09-07T17:32:23.812Z,99.90
2022-09-07T17:34:55.057Z,99.90
2022-09-07T17:37:25.689Z,99.90
2022-09-07T17:39:56.831Z,99.90
2022-09-07T17:45:20.704Z,99.90
2022-09-07T17:47:52.790Z,99.90
2022-09-07T17:50:23.870Z,99.90
2022-09-07T17:52:54.199Z,99.90
2022-09-07T17:55:25.113Z,99.90
2022-09-07T17:57:55.640Z,99.90
2022-09-07T18:00:25.997Z,99.90
2022-09-07T18:02:56.202Z,99.90
2022-09-07T18:05:26.486Z,99.90
2022-09-07T18:08:00.448Z,99.90
2022-09-07T18:11:44.839Z,99.90
2022-09-07T18:13:28.078Z,99.90
2022-09-07T18:16:15.573Z,99.90
2022-09-07T18:18:47.219Z,99.90
2022-09-07T18:21:23.767Z,99.90
2022-09-07T18:24:07.084Z,99.90
2022-09-07T18:26:41.270Z,99.90
2022-09-07T18:29:27.774Z,99.90
2022-09-07T18:31:59.622Z,99.90
2022-09-07T18:34:33.589Z,99.90
2022-09-07T18:37:04.416Z,99.90
2022-09-07T18:39:35.804Z,99.90
2022-09-07T18:42:07.759Z,99.90
2022-09-07T18:47:30.612Z,99.90
2022-09-07T18:50:02.576Z,99.90
2022-09-07T18:55:24.017Z,99.90
2022-09-07T18:57:55.560Z,99.90
2022-09-07T19:00:26.282Z,99.90
2022-09-07T19:02:56.454Z,99.90
2022-09-07T19:08:17.730Z,99.90
2022-09-07T19:10:48.024Z,99.90
2022-09-07T19:13:18.474Z,99.90
2022-09-07T19:15:49.013Z,99.90
2022-09-07T19:18:19.431Z,99.90
2022-09-07T19:20:49.669Z,99.90
2022-09-07T19:23:19.919Z,99.90
2022-09-07T19:25:50.956Z,99.90
2022-09-07T19:28:21.350Z,99.90
2022-09-07T19:30:51.573Z,99.90
2022-09-07T19:33:22.525Z,99.90
2022-09-07T19:35:52.761Z,99.90
2022-09-07T19:38:23.621Z,99.90
2022-09-07T19:41:02.950Z,99.90
2022-09-07T19:43:36.850Z,99.90
2022-09-07T19:46:07.456Z,99.90
2022-09-07T19:48:37.977Z,99.90
2022-09-07T19:51:10.587Z,99.90
2022-09-07T19:53:44.964Z,99.90
2022-09-07T19:56:20.698Z,99.90
2022-09-07T19:58:52.278Z,99.90
2022-09-07T20:01:26.747Z,99.90
2022-09-07T20:04:19.491Z,99.90
2022-09-07T20:06:51.815Z,99.90
2022-09-07T20:09:22.739Z,99.90
2022-09-07T20:11:53.029Z,99.90
2022-09-07T20:14:23.643Z,99.90
2022-09-07T20:16:53.958Z,99.90
2022-09-07T20:19:24.189Z,99.90
2022-09-07T20:21:57.766Z,99.90
2022-09-07T20:24:27.960Z,99.90
2022-09-07T20:26:58.245Z,99.90
2022-09-07T20:30:13.210Z,99.90
2022-09-07T20:32:43.507Z,99.90
2022-09-07T20:35:13.832Z,99.90
2022-09-07T20:37:44.120Z,99.90
2022-09-07T20:40:28.969Z,99.90
2022-09-07T20:43:00.816Z,99.90
2022-09-07T20:45:31.882Z,99.90
2022-09-07T20:48:02.297Z,99.90
2022-09-07T20:50:32.534Z,99.90
2022-09-07T20:53:02.759Z,99.90
2022-09-07T20:55:32.933Z,99.90
2022-09-07T20:58:03.189Z,99.90
2022-09-07T21:00:34.054Z,99.90
2022-09-07T21:03:04.411Z,99.90
2022-09-07T21:05:38.338Z,99.90
2022-09-07T21:08:08.683Z,99.90
2022-09-07T21:10:42.717Z,99.90
2022-09-07T21:13:14.515Z,99.90
2022-09-07T21:15:46.474Z,99.90
2022-09-07T21:18:19.964Z,99.90
2022-09-07T21:21:18.799Z,99.90
2022-09-07T21:23:50.149Z,99.90
2022-09-07T21:26:23.974Z,99.90
2022-09-07T21:29:06.973Z,99.90
2022-09-07T21:31:37.334Z,99.90
2022-09-07T21:34:07.524Z,99.90
2022-09-07T21:36:37.766Z,99.90
2022-09-07T21:39:11.427Z,99.90
2022-09-07T21:41:45.389Z,99.90
2022-09-07T21:44:17.432Z,99.90
2022-09-07T21:46:47.870Z,99.90
2022-09-07T21:49:18.197Z,99.90
2022-09-07T21:51:48.396Z,99.90
2022-09-07T21:54:18.614Z,99.90
2022-09-07T21:56:49.152Z,99.90
2022-09-07T21:59:19.398Z,99.90
2022-09-07T22:01:50.798Z,99.90
2022-09-07T22:04:21.214Z,99.90
2022-09-07T22:06:51.594Z,99.90
2022-09-07T22:09:21.847Z,99.90
2022-09-07T22:11:52.608Z,99.90
2022-09-07T22:14:22.811Z,99.90
2022-09-07T22:16:53.129Z,99.90
2022-09-07T22:19:23.550Z,99.90
2022-09-07T22:21:53.914Z,99.90
2022-09-07T22:24:24.215Z,99.90
2022-09-07T22:26:55.461Z,99.90
2022-09-07T22:29:25.722Z,99.90
2022-09-07T22:31:55.978Z,99.90
2022-09-07T22:34:26.307Z,99.90
2022-09-07T22:36:56.552Z,99.90
2022-09-07T22:39:26.791Z,99.90
2022-09-07T22:41:57.548Z,99.90
2022-09-07T22:44:28.790Z,99.90
2022-09-07T22:46:59.110Z,99.90
2022-09-07T22:49:29.457Z,99.90
2022-09-07T22:51:59.724Z,99.90
2022-09-07T22:54:30.016Z,99.90
2022-09-07T22:57:00.291Z,99.90
2022-09-07T22:59:30.771Z,99.70
2022-09-07T23:02:01.228Z,99.70
2022-09-07T23:04:32.022Z,99.70
2022-09-07T23:07:02.741Z,99.80
2022-09-07T23:09:33.334Z,99.80
2022-09-07T23:12:03.755Z,99.70
2022-09-07T23:14:34.008Z,99.80
2022-09-07T23:17:04.337Z,99.90
2022-09-07T23:19:34.531Z,99.90
2022-09-07T23:22:04.733Z,99.90
2022-09-07T23:24:35.467Z,99.90
2022-09-07T23:27:05.736Z,99.90
2022-09-07T23:29:36.043Z,99.90
2022-09-07T23:32:45.187Z,99.90
2022-09-07T23:38:51.134Z,99.90
2022-09-07T23:41:21.084Z,99.90
2022-09-07T23:43:50.693Z,99.90
2022-09-07T23:46:21.105Z,99.90
2022-09-07T23:48:51.697Z,99.90
2022-09-07T23:51:24.593Z,99.90
2022-09-07T23:53:55.616Z,99.90
2022-09-07T23:56:26.202Z,99.90
2022-09-07T23:58:56.249Z,99.90
